Pagina principale
METAR-TAF:

METAR-TAF

Aeroporti :

Ancona, Italia

latitudine: 43-37N, longitudine: 013-22E, altezza: 12 m

Osservazione

Il bollettino è stato emesso 27 minuti fa, alle 15:20 UTC
Vento 7 kt da nord
Temperature 25°C
Umidità 57%
Pressione 1011 hPa
Visibilità 10 km o più

METAR: LIPY 131520Z AUTO 36007KT 9999 BKN180/// 25/16 Q1011

Ora: 17:47 (15:47 UTC)

Previsione

Il bollettino è stato emesso 4 ore e 47 minuti fa, alle 11:00 UTC
Previsione valida dal 13 alle 12 UTC al 14 alle 12 UTC
Vento 8 kt da nord
Visibilità 10 km o più
nessuna nube inferiore a 1500 m e nessun cumulonembo
Temporaneamente
dal 13 alle 12 UTC al 13 alle 18 UTC
temporale, pioggia

TAF: LIPY 131100Z 1312/1412 35008KT CAVOK TEMPO 1312/1318 TSRA

Osservazioni e previsioni meteorologiche di più di 4000 aeroporti (messaggi METAR e TAF).

Le stazioni disponibili sono rappresentate dai dischi gialli e rossi sulla carta.

Puntare il mouse per vedere il nome della stazione.

Clicca sopra per visualizzare le osservazioni e previsioni meteorologiche.

Per cambiare la mappa : fare clic sui pulsanti verdi con una croce nera per ingrandire, il pulsante verde con un trattino per diminuire, o sulla freccia verde per le mappe adiacenti.


METAR-TAF: